Terminal Aerodrome Forecast
Issued by NWS

Home | Current Version | Previous Version | Text Only | Print | Product List | Glossary On
Versions: 1 2 3 4 5 6 7 8 9 10 11 12 13 14 15 16 17 18 19 20 21 22 23 24 25 26 27 28 29 30
000
FTUS41 KBTV 261130 CCA
TAFPBG
TAF COR
KPBG 261130Z 2612/2712 25005KT P6SM BKN050
     FM261800 22008KT P6SM OVC045
     FM270300 VRB04KT P6SM BKN035 OVC045=

USA.gov is the U.S. government's official web portal to all federal, state and local government web resources and services.